createdAt,value
2023-02-14T00:00:24.674Z,40.50
2023-02-14T00:00:57.336Z,40.30
2023-02-14T00:01:29.573Z,38.90
2023-02-14T00:02:02.027Z,32.00
2023-02-14T00:02:34.560Z,32.90
2023-02-14T00:03:07.159Z,34.20
2023-02-14T00:03:39.563Z,38.50
2023-02-14T00:04:12.039Z,43.20
2023-02-14T00:04:44.483Z,38.10
2023-02-14T00:05:16.875Z,40.10
2023-02-14T00:05:49.399Z,41.60
2023-02-14T00:06:21.868Z,39.10
2023-02-14T00:06:54.334Z,39.50
2023-02-14T00:07:26.781Z,41.50
2023-02-14T00:07:59.201Z,39.50
2023-02-14T00:08:31.668Z,40.10
2023-02-14T00:09:04.128Z,36.90
2023-02-14T00:09:36.589Z,33.60
2023-02-14T00:10:09.043Z,37.40
2023-02-14T00:10:41.524Z,32.50
2023-02-14T00:11:14.027Z,33.60
2023-02-14T00:11:46.436Z,41.70
2023-02-14T00:12:18.891Z,38.40
2023-02-14T00:12:51.346Z,39.50
2023-02-14T00:13:23.793Z,41.70
2023-02-14T00:13:56.229Z,41.80
2023-02-14T00:14:28.753Z,37.60
2023-02-14T00:15:01.220Z,36.50
2023-02-14T00:15:33.719Z,38.70
2023-02-14T00:16:06.240Z,40.40
2023-02-14T00:16:38.650Z,37.60
2023-02-14T00:17:11.153Z,36.10
2023-02-14T00:17:43.625Z,35.00
2023-02-14T00:18:16.438Z,32.60
2023-02-14T00:18:48.506Z,33.70
2023-02-14T00:19:20.971Z,33.60
2023-02-14T00:19:53.467Z,41.60
2023-02-14T00:20:26.007Z,43.70
2023-02-14T00:20:58.718Z,35.10
2023-02-14T00:21:30.920Z,35.70
2023-02-14T00:22:03.372Z,35.30
2023-02-14T00:22:35.869Z,38.20
2023-02-14T00:23:08.317Z,37.40
2023-02-14T00:23:40.776Z,36.50
2023-02-14T00:24:13.263Z,38.90
2023-02-14T00:24:45.710Z,39.20
2023-02-14T00:25:18.142Z,36.90
2023-02-14T00:25:50.549Z,36.10
2023-02-14T00:26:23.009Z,37.10
2023-02-14T00:26:55.474Z,36.90
2023-02-14T00:27:27.920Z,39.60
2023-02-14T00:28:01.077Z,39.40
2023-02-14T00:28:33.540Z,34.80
2023-02-14T00:29:06.026Z,34.30
2023-02-14T00:29:38.470Z,35.80
2023-02-14T00:30:10.964Z,37.90
2023-02-14T00:30:43.420Z,36.00
2023-02-14T00:31:15.948Z,31.50
2023-02-14T00:31:48.432Z,38.10
2023-02-14T00:32:20.809Z,41.10
2023-02-14T00:32:53.245Z,35.80
2023-02-14T00:33:25.692Z,33.90
2023-02-14T00:33:58.131Z,31.50
2023-02-14T00:34:30.574Z,36.90
2023-02-14T00:35:03.020Z,40.60
2023-02-14T00:35:35.499Z,41.20
2023-02-14T00:36:08.023Z,45.10
2023-02-14T00:36:40.489Z,42.40
2023-02-14T00:37:13.041Z,32.60
2023-02-14T00:37:45.474Z,34.50
2023-02-14T00:38:17.892Z,37.30
2023-02-14T00:38:50.367Z,34.00
2023-02-14T00:39:22.795Z,38.30
2023-02-14T00:39:55.292Z,42.80
2023-02-14T00:40:27.730Z,39.30
2023-02-14T00:41:00.359Z,40.20
2023-02-14T00:41:32.639Z,43.90
2023-02-14T00:42:05.090Z,38.10
2023-02-14T00:42:37.561Z,38.70
2023-02-14T00:43:09.992Z,44.80
2023-02-14T00:43:42.469Z,41.80
2023-02-14T00:44:14.945Z,38.70
2023-02-14T00:44:47.412Z,33.50
2023-02-14T00:45:19.862Z,35.40
2023-02-14T00:45:52.357Z,38.60
2023-02-14T00:46:24.771Z,37.50
2023-02-14T00:46:57.209Z,36.20
2023-02-14T00:47:29.692Z,40.10
2023-02-14T00:48:02.216Z,37.20
2023-02-14T00:48:34.668Z,35.70
2023-02-14T00:49:07.124Z,39.00
2023-02-14T00:49:39.641Z,37.40
2023-02-14T00:50:12.082Z,36.40
2023-02-14T00:50:44.569Z,38.60
2023-02-14T00:51:17.021Z,40.10
2023-02-14T00:51:49.476Z,38.70
2023-02-14T00:52:21.957Z,39.80
2023-02-14T00:52:54.421Z,40.40
2023-02-14T00:53:26.865Z,36.70
2023-02-14T00:53:59.296Z,39.40
2023-02-14T00:54:31.789Z,38.00
2023-02-14T00:55:04.237Z,36.40
2023-02-14T00:55:36.678Z,35.00
2023-02-14T00:56:09.315Z,36.10
2023-02-14T00:56:41.669Z,36.30
2023-02-14T00:57:14.176Z,38.10
2023-02-14T00:57:46.542Z,37.40
2023-02-14T00:58:19.051Z,33.20
2023-02-14T00:58:51.506Z,35.50
2023-02-14T00:59:23.956Z,38.80
2023-02-14T00:59:56.397Z,38.40
2023-02-14T01:00:28.864Z,34.30
2023-02-14T01:01:01.555Z,35.30
2023-02-14T01:01:34.386Z,35.70
2023-02-14T01:02:06.877Z,35.30
2023-02-14T01:02:39.383Z,37.90
2023-02-14T01:03:11.763Z,39.00
2023-02-14T01:03:44.245Z,34.40
2023-02-14T01:04:16.686Z,34.70
2023-02-14T01:04:49.140Z,38.30
2023-02-14T01:05:21.593Z,36.00
2023-02-14T01:05:54.034Z,39.10
2023-02-14T01:06:26.543Z,38.60
2023-02-14T01:06:59.044Z,34.40
2023-02-14T01:07:31.469Z,36.00
2023-02-14T01:08:03.913Z,36.20
2023-02-14T01:08:36.389Z,39.80
2023-02-14T01:09:08.829Z,40.30
2023-02-14T01:09:41.303Z,37.90
2023-02-14T01:10:13.731Z,35.20
2023-02-14T01:10:46.209Z,35.90
2023-02-14T01:11:18.644Z,34.80
2023-02-14T01:11:51.113Z,38.80
2023-02-14T01:12:23.562Z,47.10
2023-02-14T01:12:56.017Z,40.20
2023-02-14T01:13:28.459Z,37.00
2023-02-14T01:14:00.919Z,43.10
2023-02-14T01:14:33.379Z,40.60
2023-02-14T01:15:05.832Z,38.10
2023-02-14T01:15:38.281Z,38.30
2023-02-14T01:16:10.751Z,38.20
2023-02-14T01:16:43.229Z,39.80
2023-02-14T01:17:15.635Z,38.90
2023-02-14T01:17:48.085Z,38.20
2023-02-14T01:18:20.537Z,42.20
2023-02-14T01:18:53.038Z,43.00
2023-02-14T01:19:25.544Z,38.20
2023-02-14T01:19:58.026Z,36.00
2023-02-14T01:20:30.433Z,41.10
2023-02-14T01:21:02.887Z,41.90
2023-02-14T01:21:35.332Z,41.20
2023-02-14T01:22:07.802Z,44.60
2023-02-14T01:22:40.283Z,35.70
2023-02-14T01:23:12.713Z,35.40
2023-02-14T01:23:45.205Z,38.00
2023-02-14T01:24:17.653Z,39.00
2023-02-14T01:24:50.149Z,41.20
2023-02-14T01:25:22.642Z,39.10
2023-02-14T01:25:55.114Z,39.80
2023-02-14T01:26:27.564Z,38.60
2023-02-14T01:27:00.065Z,35.40
2023-02-14T01:27:32.468Z,36.90
2023-02-14T01:28:04.905Z,39.60
2023-02-14T01:28:37.354Z,39.20
2023-02-14T01:29:09.807Z,39.30
2023-02-14T01:29:42.250Z,38.80
2023-02-14T01:30:14.771Z,32.10
2023-02-14T01:30:47.267Z,32.40
2023-02-14T01:31:19.777Z,31.60
2023-02-14T01:31:52.160Z,36.80
2023-02-14T01:32:24.563Z,37.30
2023-02-14T01:32:57.011Z,37.00
2023-02-14T01:33:29.442Z,36.00
2023-02-14T01:34:01.947Z,37.40
2023-02-14T01:34:34.392Z,40.20
2023-02-14T01:35:06.856Z,37.50
2023-02-14T01:35:39.334Z,36.90
2023-02-14T01:36:11.799Z,38.40
2023-02-14T01:36:44.269Z,45.20
2023-02-14T01:37:16.737Z,43.60
2023-02-14T01:37:49.291Z,39.40
2023-02-14T01:38:21.708Z,41.00
2023-02-14T01:38:54.177Z,44.10
2023-02-14T01:39:26.644Z,42.60
2023-02-14T01:39:59.151Z,36.40
2023-02-14T01:40:31.621Z,37.70
2023-02-14T01:41:04.112Z,40.30
2023-02-14T01:41:36.573Z,45.00
2023-02-14T01:42:09.095Z,39.60
2023-02-14T01:42:41.567Z,37.60
2023-02-14T01:43:14.036Z,39.10
2023-02-14T01:43:46.504Z,40.70
2023-02-14T01:44:18.983Z,37.60
2023-02-14T01:44:51.461Z,39.40
2023-02-14T01:45:23.906Z,37.40
2023-02-14T01:45:56.464Z,30.60
2023-02-14T01:46:28.874Z,35.40
2023-02-14T01:47:01.372Z,38.10
2023-02-14T01:47:33.847Z,35.90
2023-02-14T01:48:06.347Z,41.30
2023-02-14T01:48:38.836Z,39.70
2023-02-14T01:49:11.312Z,38.00
2023-02-14T01:49:43.938Z,35.90
2023-02-14T01:50:16.397Z,31.50
2023-02-14T01:50:48.869Z,33.20
2023-02-14T01:51:21.302Z,37.60
2023-02-14T01:51:53.753Z,34.60
2023-02-14T01:52:26.190Z,27.80
2023-02-14T01:52:58.634Z,34.10
2023-02-14T01:53:31.103Z,41.20
2023-02-14T01:54:03.537Z,37.90
2023-02-14T01:54:35.993Z,34.60
2023-02-14T01:55:08.477Z,32.60
2023-02-14T01:55:40.953Z,32.10
2023-02-14T01:56:13.426Z,32.70
2023-02-14T01:56:45.898Z,38.30
2023-02-14T01:57:18.352Z,40.10
2023-02-14T01:57:50.842Z,40.00
2023-02-14T01:58:23.395Z,36.50
2023-02-14T01:58:55.851Z,36.90
2023-02-14T01:59:28.362Z,38.30
2023-02-14T02:00:00.873Z,40.00
2023-02-14T02:00:33.366Z,39.20
2023-02-14T02:01:05.889Z,35.00
2023-02-14T02:01:38.356Z,34.10
2023-02-14T02:02:10.853Z,37.50
2023-02-14T02:02:43.399Z,36.10
2023-02-14T02:03:15.759Z,33.50
2023-02-14T02:03:48.254Z,36.70
2023-02-14T02:04:20.743Z,40.90
2023-02-14T02:04:53.203Z,39.40
2023-02-14T02:05:25.693Z,34.90
2023-02-14T02:05:58.228Z,33.70
2023-02-14T02:06:30.677Z,37.90
2023-02-14T02:07:03.142Z,35.60
2023-02-14T02:07:35.634Z,33.70
2023-02-14T02:08:08.147Z,38.20
2023-02-14T02:08:40.583Z,40.60
2023-02-14T02:09:13.026Z,41.00
2023-02-14T02:09:45.506Z,42.70
2023-02-14T02:10:17.980Z,40.70
2023-02-14T02:10:50.479Z,34.00
2023-02-14T02:11:22.946Z,34.40
2023-02-14T02:11:55.453Z,34.50
2023-02-14T02:12:29.814Z,35.70
2023-02-14T02:13:00.543Z,32.10
2023-02-14T02:13:33.001Z,35.60
2023-02-14T02:14:05.462Z,37.10
2023-02-14T02:14:37.972Z,36.30
2023-02-14T02:15:10.403Z,41.20
2023-02-14T02:15:42.872Z,35.80
2023-02-14T02:16:15.418Z,38.10
2023-02-14T02:16:47.882Z,40.20
2023-02-14T02:17:20.260Z,35.20
2023-02-14T02:17:52.752Z,39.40
2023-02-14T02:18:25.248Z,37.10
2023-02-14T02:18:57.723Z,37.30
2023-02-14T02:19:30.214Z,39.00
2023-02-14T02:20:02.676Z,38.00
2023-02-14T02:20:35.130Z,33.40
2023-02-14T02:21:07.557Z,32.10
2023-02-14T02:21:40.008Z,40.00
2023-02-14T02:22:12.520Z,41.80
2023-02-14T02:22:45.043Z,40.00
2023-02-14T02:23:17.473Z,39.40
2023-02-14T02:23:49.926Z,36.90
2023-02-14T02:24:22.542Z,37.50
2023-02-14T02:24:55.046Z,42.30
2023-02-14T02:25:27.587Z,45.40
2023-02-14T02:26:00.051Z,48.10
2023-02-14T02:26:32.532Z,47.40
2023-02-14T02:27:05.036Z,37.20
2023-02-14T02:27:37.511Z,36.40
2023-02-14T02:28:09.950Z,40.20
2023-02-14T02:28:42.411Z,45.90
2023-02-14T02:29:14.884Z,48.10
2023-02-14T02:29:47.440Z,41.70
2023-02-14T02:30:19.919Z,41.10
2023-02-14T02:30:52.507Z,41.20
2023-02-14T02:31:24.897Z,35.70
2023-02-14T02:31:57.412Z,31.20
2023-02-14T02:32:29.766Z,41.50
2023-02-14T02:33:02.264Z,41.10
2023-02-14T02:33:34.751Z,35.80
2023-02-14T02:34:07.235Z,37.80
2023-02-14T02:34:39.701Z,37.50
2023-02-14T02:35:12.179Z,40.80
2023-02-14T02:35:44.667Z,42.70
2023-02-14T02:36:17.144Z,39.70
2023-02-14T02:36:49.600Z,35.10
2023-02-14T02:37:22.047Z,37.40
2023-02-14T02:37:54.523Z,37.80
2023-02-14T02:38:26.964Z,35.30
2023-02-14T02:38:59.428Z,36.50
2023-02-14T02:39:31.871Z,35.80
2023-02-14T02:40:04.361Z,37.10
2023-02-14T02:40:36.876Z,37.40
2023-02-14T02:41:09.336Z,31.70
2023-02-14T02:41:41.820Z,37.30
2023-02-14T02:42:14.333Z,38.20
2023-02-14T02:42:46.787Z,33.20
2023-02-14T02:43:19.245Z,37.50
2023-02-14T02:43:51.759Z,32.50
2023-02-14T02:44:24.244Z,31.60
2023-02-14T02:44:56.785Z,39.00
2023-02-14T02:45:29.182Z,36.90
2023-02-14T02:46:01.735Z,35.00
2023-02-14T02:46:34.171Z,35.10
2023-02-14T02:47:06.646Z,32.00
2023-02-14T02:47:39.171Z,35.70
2023-02-14T02:48:11.637Z,33.10
2023-02-14T02:48:44.070Z,27.90
2023-02-14T02:49:16.551Z,38.60
2023-02-14T02:49:49.021Z,41.50
2023-02-14T02:50:21.471Z,35.30
2023-02-14T02:50:53.997Z,33.80
2023-02-14T02:51:26.492Z,30.90
2023-02-14T02:51:58.939Z,30.90
2023-02-14T02:52:31.412Z,39.80
2023-02-14T02:53:03.891Z,42.80
2023-02-14T02:53:36.357Z,35.10
2023-02-14T02:54:08.821Z,36.00
2023-02-14T02:54:41.340Z,36.40
2023-02-14T02:55:13.804Z,33.10
2023-02-14T02:55:46.362Z,29.80
2023-02-14T02:56:18.834Z,32.00
2023-02-14T02:56:51.296Z,34.80
2023-02-14T02:57:23.790Z,34.10
2023-02-14T02:57:56.256Z,34.70
2023-02-14T02:58:28.691Z,35.10
2023-02-14T02:59:01.189Z,35.20
2023-02-14T02:59:33.667Z,36.70
2023-02-14T03:00:06.147Z,38.50
2023-02-14T03:00:38.654Z,38.50
2023-02-14T03:01:11.218Z,34.00
2023-02-14T03:01:43.719Z,35.20
2023-02-14T03:02:16.166Z,34.40
2023-02-14T03:02:48.867Z,35.20
2023-02-14T03:03:21.341Z,34.10
2023-02-14T03:03:53.812Z,33.50
2023-02-14T03:04:26.321Z,29.40
2023-02-14T03:04:58.736Z,30.80
2023-02-14T03:05:31.187Z,33.80
2023-02-14T03:06:03.706Z,36.70
2023-02-14T03:06:36.235Z,35.50
2023-02-14T03:07:08.747Z,33.90
2023-02-14T03:07:41.187Z,33.40
2023-02-14T03:08:13.646Z,33.80
2023-02-14T03:08:46.118Z,38.70
2023-02-14T03:09:18.573Z,42.30
2023-02-14T03:09:51.025Z,41.30
2023-02-14T03:10:23.479Z,36.30
2023-02-14T03:10:55.971Z,32.10
2023-02-14T03:11:28.423Z,31.10
2023-02-14T03:12:00.920Z,33.90
2023-02-14T03:12:33.351Z,34.70
2023-02-14T03:13:05.825Z,35.20
2023-02-14T03:13:38.293Z,36.10
2023-02-14T03:14:11.287Z,34.00
2023-02-14T03:14:43.786Z,34.20
2023-02-14T03:15:16.235Z,36.90
2023-02-14T03:15:48.753Z,37.10
2023-02-14T03:16:21.240Z,33.60
2023-02-14T03:16:53.715Z,29.60
2023-02-14T03:17:26.215Z,30.00
2023-02-14T03:17:58.693Z,30.00
2023-02-14T03:18:31.161Z,37.70
2023-02-14T03:19:03.638Z,37.90
2023-02-14T03:19:36.137Z,32.90
2023-02-14T03:20:08.717Z,31.00
2023-02-14T03:20:41.163Z,31.60
2023-02-14T03:21:13.640Z,34.30
2023-02-14T03:21:46.152Z,35.90
2023-02-14T03:22:18.627Z,37.90
2023-02-14T03:22:51.326Z,34.40
2023-02-14T03:23:23.618Z,31.30
2023-02-14T03:23:56.173Z,29.10
2023-02-14T03:24:28.634Z,30.40
2023-02-14T03:25:01.119Z,36.30
2023-02-14T03:25:33.612Z,33.10
2023-02-14T03:26:06.116Z,35.70
2023-02-14T03:26:38.607Z,36.20
2023-02-14T03:27:11.098Z,31.90
2023-02-14T03:27:43.567Z,32.20
2023-02-14T03:28:16.048Z,32.00
2023-02-14T03:28:48.508Z,33.70
2023-02-14T03:29:20.964Z,32.80
2023-02-14T03:29:53.460Z,31.70
2023-02-14T03:30:25.933Z,32.50
2023-02-14T03:30:58.749Z,30.90
2023-02-14T03:31:30.916Z,32.30
2023-02-14T03:32:03.318Z,35.20
2023-02-14T03:32:35.690Z,33.50
2023-02-14T03:33:08.135Z,33.90
2023-02-14T03:33:40.556Z,32.20
2023-02-14T03:34:13.036Z,31.90
2023-02-14T03:34:45.480Z,34.20
2023-02-14T03:35:17.946Z,37.50
2023-02-14T03:35:50.353Z,40.00
2023-02-14T03:36:22.837Z,36.30
2023-02-14T03:36:55.334Z,30.50
2023-02-14T03:37:27.808Z,31.40
2023-02-14T03:38:00.321Z,36.10
2023-02-14T03:38:32.788Z,37.40
2023-02-14T03:39:05.232Z,34.30
2023-02-14T03:39:37.675Z,32.80
2023-02-14T03:40:10.187Z,31.30
2023-02-14T03:40:42.644Z,29.30
2023-02-14T03:41:15.170Z,30.50
2023-02-14T03:41:47.638Z,30.00
2023-02-14T03:42:20.082Z,30.60
2023-02-14T03:42:52.541Z,31.70
2023-02-14T03:43:25.019Z,31.70
2023-02-14T03:43:57.482Z,32.00
2023-02-14T03:44:29.952Z,33.70
2023-02-14T03:45:02.550Z,33.20
2023-02-14T03:45:34.943Z,31.80
2023-02-14T03:46:07.474Z,30.20
2023-02-14T03:46:39.889Z,30.90
2023-02-14T03:47:12.347Z,35.90
2023-02-14T03:47:44.822Z,35.40
2023-02-14T03:48:17.257Z,38.30
2023-02-14T03:48:49.801Z,41.20
2023-02-14T03:49:22.280Z,33.40
2023-02-14T03:49:54.735Z,33.20
2023-02-14T03:50:27.220Z,33.80
2023-02-14T03:50:59.963Z,33.90
2023-02-14T03:51:32.251Z,29.70
2023-02-14T03:52:04.713Z,27.40
2023-02-14T03:52:37.177Z,32.10
2023-02-14T03:53:09.680Z,32.90
2023-02-14T03:53:42.127Z,29.60
2023-02-14T03:54:14.639Z,28.30
2023-02-14T03:54:47.123Z,28.60
2023-02-14T03:55:19.593Z,31.10
2023-02-14T03:55:52.076Z,32.70
2023-02-14T03:56:24.532Z,35.60
2023-02-14T03:56:57.066Z,37.50
2023-02-14T03:57:29.542Z,36.90
2023-02-14T03:58:02.013Z,38.20
2023-02-14T03:58:34.467Z,40.20
2023-02-14T03:59:06.927Z,41.20
2023-02-14T03:59:39.489Z,39.30
2023-02-14T04:00:11.957Z,35.80
2023-02-14T04:00:44.428Z,34.80
2023-02-14T04:01:16.915Z,34.30
2023-02-14T04:01:49.409Z,31.50
2023-02-14T04:02:21.835Z,29.70
2023-02-14T04:02:54.258Z,33.40
2023-02-14T04:03:26.809Z,36.70
2023-02-14T04:03:59.208Z,35.60
2023-02-14T04:04:31.640Z,30.60
2023-02-14T04:05:04.122Z,25.50
2023-02-14T04:05:36.584Z,27.80
2023-02-14T04:06:09.056Z,31.70
2023-02-14T04:06:41.537Z,31.70
2023-02-14T04:07:13.995Z,33.90
2023-02-14T04:07:46.454Z,33.90
2023-02-14T04:08:18.916Z,28.40
2023-02-14T04:08:51.418Z,29.10
2023-02-14T04:09:23.902Z,29.20
2023-02-14T04:09:56.329Z,28.00
2023-02-14T04:10:28.806Z,29.60
2023-02-14T04:11:01.607Z,36.30
2023-02-14T04:11:33.774Z,36.00
2023-02-14T04:12:06.236Z,29.50
2023-02-14T04:12:38.657Z,28.60
2023-02-14T04:13:11.129Z,27.80
2023-02-14T04:13:43.571Z,29.50
2023-02-14T04:14:16.018Z,27.80
2023-02-14T04:14:48.483Z,32.50
2023-02-14T04:15:20.949Z,29.90
2023-02-14T04:15:53.466Z,26.90
2023-02-14T04:16:25.948Z,26.60
2023-02-14T04:16:58.413Z,28.50
2023-02-14T04:17:30.865Z,29.30
2023-02-14T04:18:03.345Z,28.50
2023-02-14T04:18:35.835Z,29.50
2023-02-14T04:19:08.372Z,30.50
2023-02-14T04:19:40.823Z,29.80
2023-02-14T04:20:13.289Z,30.90
2023-02-14T04:20:45.722Z,30.40
2023-02-14T04:21:18.203Z,31.40
2023-02-14T04:21:50.691Z,28.20
2023-02-14T04:22:23.142Z,28.50
2023-02-14T04:22:55.621Z,32.30
2023-02-14T04:23:28.113Z,38.60
2023-02-14T04:24:00.614Z,38.60
2023-02-14T04:24:33.046Z,29.40
2023-02-14T04:25:05.497Z,29.50
2023-02-14T04:25:37.926Z,31.20
2023-02-14T04:26:10.368Z,31.90
2023-02-14T04:26:43.804Z,27.50
2023-02-14T04:27:16.401Z,27.90
2023-02-14T04:27:48.891Z,30.60
2023-02-14T04:28:21.364Z,29.10
2023-02-14T04:28:53.820Z,31.10
2023-02-14T04:29:26.267Z,30.20
2023-02-14T04:29:58.895Z,25.00
2023-02-14T04:30:31.415Z,31.90
2023-02-14T04:31:04.133Z,28.60
2023-02-14T04:31:36.332Z,28.00
2023-02-14T04:32:08.890Z,31.80
2023-02-14T04:32:41.185Z,33.00
2023-02-14T04:33:13.651Z,33.20
2023-02-14T04:33:46.161Z,32.60
2023-02-14T04:34:18.588Z,29.20
2023-02-14T04:34:51.062Z,30.50
2023-02-14T04:35:23.546Z,32.80
2023-02-14T04:35:56.038Z,33.30
2023-02-14T04:36:28.521Z,26.50
2023-02-14T04:37:00.992Z,25.50
2023-02-14T04:37:33.489Z,30.50
2023-02-14T04:38:05.943Z,28.50
2023-02-14T04:38:38.379Z,26.00
2023-02-14T04:39:10.831Z,26.80
2023-02-14T04:39:43.292Z,33.40
2023-02-14T04:40:15.746Z,39.70
2023-02-14T04:40:48.191Z,32.50
2023-02-14T04:41:20.636Z,23.80
2023-02-14T04:41:53.117Z,26.10
2023-02-14T04:42:25.596Z,28.10
2023-02-14T04:42:58.073Z,29.90
2023-02-14T04:43:30.529Z,28.70
2023-02-14T04:44:03.171Z,27.00
2023-02-14T04:44:35.656Z,30.20
2023-02-14T04:45:08.140Z,35.20
2023-02-14T04:45:40.621Z,34.90
2023-02-14T04:46:13.149Z,29.30
2023-02-14T04:46:45.640Z,33.50
2023-02-14T04:47:18.033Z,34.20
2023-02-14T04:47:50.493Z,27.80
2023-02-14T04:48:22.973Z,31.00
2023-02-14T04:48:55.454Z,29.70
2023-02-14T04:49:27.979Z,31.50
2023-02-14T04:50:00.465Z,31.20
2023-02-14T04:50:32.899Z,27.70
2023-02-14T04:51:05.394Z,28.70
2023-02-14T04:51:37.871Z,29.70
2023-02-14T04:52:10.389Z,31.80
2023-02-14T04:52:42.797Z,34.70
2023-02-14T04:53:15.253Z,32.40
2023-02-14T04:53:47.699Z,30.90
2023-02-14T04:54:20.181Z,32.30
2023-02-14T04:54:52.743Z,31.50
2023-02-14T04:55:25.254Z,29.80
2023-02-14T04:55:57.690Z,29.90
2023-02-14T04:56:30.118Z,28.60
2023-02-14T04:57:02.698Z,29.90
2023-02-14T04:57:35.180Z,30.30
2023-02-14T04:58:07.665Z,29.50
2023-02-14T04:58:40.087Z,30.20
2023-02-14T04:59:12.640Z,31.80
2023-02-14T04:59:45.104Z,31.10
2023-02-14T05:00:17.646Z,31.50
2023-02-14T05:00:50.346Z,28.90
2023-02-14T05:01:22.710Z,28.10
2023-02-14T05:01:55.189Z,32.70
2023-02-14T05:02:27.700Z,32.80
2023-02-14T05:03:00.115Z,28.60
2023-02-14T05:03:32.552Z,28.80
2023-02-14T05:04:04.997Z,30.10
2023-02-14T05:04:37.444Z,28.70
2023-02-14T05:05:09.916Z,28.80
2023-02-14T05:05:42.388Z,28.80
2023-02-14T05:06:15.397Z,27.30
2023-02-14T05:06:47.931Z,31.30
2023-02-14T05:07:20.404Z,35.60
2023-02-14T05:07:52.868Z,34.10
2023-02-14T05:08:25.378Z,30.80
2023-02-14T05:08:57.850Z,29.20
2023-02-14T05:09:30.361Z,29.80
2023-02-14T05:10:02.861Z,29.50
2023-02-14T05:10:35.363Z,29.30
2023-02-14T05:11:07.793Z,30.70
2023-02-14T05:11:40.253Z,29.50
2023-02-14T05:12:12.684Z,33.50
2023-02-14T05:12:45.198Z,37.50
2023-02-14T05:13:17.664Z,31.00
2023-02-14T05:13:50.130Z,28.10
2023-02-14T05:14:22.592Z,28.80
2023-02-14T05:15:02.133Z,28.10
2023-02-14T05:15:36.796Z,31.20
2023-02-14T05:16:07.759Z,31.70
2023-02-14T05:16:40.213Z,29.70
2023-02-14T05:17:12.638Z,30.60
2023-02-14T05:17:45.103Z,30.30
2023-02-14T05:18:17.582Z,30.90
2023-02-14T05:18:50.123Z,30.30
2023-02-14T05:19:22.720Z,31.40
2023-02-14T05:19:55.279Z,32.30
2023-02-14T05:20:27.748Z,27.60
2023-02-14T05:21:00.573Z,33.00
2023-02-14T05:21:32.672Z,34.60
2023-02-14T05:22:05.267Z,26.90
2023-02-14T05:22:37.736Z,29.50
2023-02-14T05:23:10.258Z,33.60
2023-02-14T05:23:42.719Z,29.60
2023-02-14T05:24:15.180Z,28.30
2023-02-14T05:24:47.601Z,31.40
2023-02-14T05:25:20.129Z,28.30
2023-02-14T05:25:52.586Z,29.10
2023-02-14T05:26:25.117Z,29.30
2023-02-14T05:26:57.612Z,31.90
2023-02-14T05:27:30.078Z,32.00
2023-02-14T05:28:02.616Z,30.10
2023-02-14T05:28:35.094Z,29.90
2023-02-14T05:29:07.569Z,30.00
2023-02-14T05:29:40.009Z,28.30
2023-02-14T05:30:12.547Z,25.40
2023-02-14T05:30:45.053Z,30.00
2023-02-14T05:31:17.575Z,32.70
2023-02-14T05:31:49.966Z,31.00
2023-02-14T05:32:22.475Z,33.40
2023-02-14T05:32:54.958Z,34.30
2023-02-14T05:33:27.429Z,32.10
2023-02-14T05:33:59.913Z,28.70
2023-02-14T05:34:32.431Z,27.50
2023-02-14T05:35:04.906Z,27.90
2023-02-14T05:35:37.382Z,29.50
2023-02-14T05:36:09.846Z,29.20
2023-02-14T05:36:42.309Z,30.80
2023-02-14T05:37:14.829Z,33.10
2023-02-14T05:37:47.317Z,34.00
2023-02-14T05:38:19.809Z,29.50
2023-02-14T05:38:52.311Z,31.40
2023-02-14T05:39:24.788Z,34.10
2023-02-14T05:39:57.254Z,31.60
2023-02-14T05:40:29.725Z,38.80
2023-02-14T05:41:02.404Z,38.80
2023-02-14T05:41:34.675Z,31.80
2023-02-14T05:42:07.119Z,29.80
2023-02-14T05:42:39.574Z,29.30
2023-02-14T05:43:12.045Z,27.90
2023-02-14T05:43:44.492Z,28.50
2023-02-14T05:44:16.983Z,28.00
2023-02-14T05:44:49.463Z,29.20
2023-02-14T05:45:21.919Z,35.00
2023-02-14T05:45:54.456Z,31.70
2023-02-14T05:46:26.880Z,30.30
2023-02-14T05:46:59.443Z,34.10
2023-02-14T05:47:31.942Z,32.90
2023-02-14T05:48:04.435Z,27.50
2023-02-14T05:48:36.923Z,28.10
2023-02-14T05:49:09.428Z,31.70
2023-02-14T05:49:41.959Z,32.40
2023-02-14T05:50:14.451Z,29.20
2023-02-14T05:50:46.959Z,28.40
2023-02-14T05:51:19.429Z,28.20
2023-02-14T05:51:51.990Z,27.30
2023-02-14T05:52:24.471Z,27.80
2023-02-14T05:52:56.932Z,28.90
2023-02-14T05:53:29.353Z,29.90
2023-02-14T05:54:01.912Z,30.10
2023-02-14T05:54:34.366Z,27.80
2023-02-14T05:55:06.837Z,31.10
2023-02-14T05:55:39.321Z,36.40
2023-02-14T05:56:11.778Z,34.30
2023-02-14T05:56:44.193Z,31.20
2023-02-14T05:57:16.657Z,28.30
2023-02-14T05:57:49.146Z,28.80
2023-02-14T05:58:21.647Z,32.50
2023-02-14T05:58:54.153Z,31.20
2023-02-14T05:59:26.636Z,30.50
2023-02-14T05:59:59.151Z,31.40
2023-02-14T06:00:31.744Z,36.00
2023-02-14T06:01:04.170Z,36.50
2023-02-14T06:01:36.639Z,32.30
2023-02-14T06:02:09.348Z,36.10
2023-02-14T06:02:41.715Z,38.50
2023-02-14T06:03:17.044Z,36.40
2023-02-14T06:03:53.974Z,33.20
2023-02-14T06:04:26.537Z,26.60
2023-02-14T06:04:58.962Z,28.80
2023-02-14T06:05:31.591Z,34.70
2023-02-14T06:06:04.613Z,36.20
2023-02-14T06:06:37.131Z,39.30
2023-02-14T06:07:09.646Z,38.30
2023-02-14T06:07:42.206Z,33.00
2023-02-14T06:08:14.691Z,32.90
2023-02-14T06:08:47.210Z,31.70
2023-02-14T06:09:19.787Z,33.60
2023-02-14T06:09:52.342Z,32.40
2023-02-14T06:10:24.792Z,30.10
2023-02-14T06:10:57.387Z,31.20
2023-02-14T06:11:29.729Z,31.70
2023-02-14T06:12:02.262Z,32.80
2023-02-14T06:12:36.157Z,32.00
2023-02-14T06:13:09.052Z,34.40
2023-02-14T06:13:41.819Z,36.40
2023-02-14T06:14:14.312Z,35.10
2023-02-14T06:14:46.778Z,34.10
2023-02-14T06:15:19.262Z,32.20
2023-02-14T06:15:51.726Z,31.40
2023-02-14T06:16:24.317Z,30.80
2023-02-14T06:16:56.827Z,29.20
2023-02-14T06:17:29.218Z,26.30
2023-02-14T06:18:01.773Z,25.80
2023-02-14T06:18:34.302Z,28.10
2023-02-14T06:19:06.806Z,29.90
2023-02-14T06:19:39.263Z,30.80
2023-02-14T06:20:11.755Z,30.60
2023-02-14T06:20:44.240Z,30.30
2023-02-14T06:21:16.780Z,29.10
2023-02-14T06:21:49.293Z,28.90
2023-02-14T06:22:21.788Z,32.50
2023-02-14T06:22:54.290Z,32.50
2023-02-14T06:23:26.822Z,30.70
2023-02-14T06:23:59.334Z,28.70
2023-02-14T06:24:31.882Z,31.80
2023-02-14T06:25:04.410Z,31.50
2023-02-14T06:25:36.888Z,29.70
2023-02-14T06:26:09.334Z,31.40
2023-02-14T06:26:41.848Z,31.40
2023-02-14T06:27:14.328Z,30.90
2023-02-14T06:27:48.268Z,27.90
2023-02-14T06:28:19.227Z,29.70
2023-02-14T06:28:51.683Z,28.40
2023-02-14T06:29:24.137Z,25.90
2023-02-14T06:29:56.702Z,29.30
2023-02-14T06:30:29.241Z,27.50
2023-02-14T06:31:02.053Z,31.20
2023-02-14T06:31:34.171Z,32.30
2023-02-14T06:32:06.770Z,28.50
2023-02-14T06:32:39.111Z,25.40
2023-02-14T06:33:11.677Z,24.80
2023-02-14T06:33:44.145Z,31.50
2023-02-14T06:34:16.634Z,34.00
2023-02-14T06:34:49.115Z,37.10
2023-02-14T06:35:21.605Z,34.10
2023-02-14T06:35:54.116Z,34.40
2023-02-14T06:36:26.559Z,33.70
2023-02-14T06:36:59.072Z,28.80
2023-02-14T06:37:31.617Z,29.60
2023-02-14T06:38:04.120Z,34.40
2023-02-14T06:38:36.568Z,36.50
2023-02-14T06:39:09.044Z,36.00
2023-02-14T06:39:41.578Z,31.30
2023-02-14T06:40:14.017Z,36.50
2023-02-14T06:40:46.497Z,40.10
2023-02-14T06:41:19.049Z,41.50
2023-02-14T06:41:51.399Z,34.50
2023-02-14T06:42:23.850Z,31.20
2023-02-14T06:42:56.332Z,32.90
2023-02-14T06:43:28.779Z,36.00
2023-02-14T06:44:01.289Z,33.40
2023-02-14T06:44:33.756Z,41.80
2023-02-14T06:45:06.236Z,42.30
2023-02-14T06:45:38.811Z,34.80
2023-02-14T06:46:11.329Z,39.20
2023-02-14T06:46:43.787Z,34.60
2023-02-14T06:47:16.252Z,31.90
2023-02-14T06:47:48.729Z,36.10
2023-02-14T06:48:21.181Z,32.80
2023-02-14T06:48:53.717Z,30.60
2023-02-14T06:49:26.157Z,29.80
2023-02-14T06:49:58.682Z,29.70
2023-02-14T06:50:31.178Z,28.00
2023-02-14T06:51:03.654Z,35.20
2023-02-14T06:51:36.177Z,36.70
2023-02-14T06:52:08.815Z,32.00
2023-02-14T06:52:41.285Z,39.40
2023-02-14T06:53:13.779Z,35.10
2023-02-14T06:53:46.342Z,29.30
2023-02-14T06:54:18.856Z,29.70
2023-02-14T06:54:51.479Z,32.80
2023-02-14T06:55:23.928Z,32.70
2023-02-14T06:55:56.426Z,36.40
2023-02-14T06:56:28.905Z,31.30
2023-02-14T06:57:01.532Z,33.90
2023-02-14T06:57:34.181Z,35.20
2023-02-14T06:58:06.722Z,31.00
2023-02-14T06:58:39.172Z,35.10